sensor_id;sensor_type;location;lat;lon;timestamp;temperature;humidity
29663;DHT22;16578;53.266;7.920;2022-07-23T00:00:44;20.20;64.80
29663;DHT22;16578;53.266;7.920;2022-07-23T00:03:10;20.20;64.80
29663;DHT22;16578;53.266;7.920;2022-07-23T00:05:35;20.20;64.90
29663;DHT22;16578;53.266;7.920;2022-07-23T00:08:01;20.20;64.90
29663;DHT22;16578;53.266;7.920;2022-07-23T00:10:26;20.20;65.00
29663;DHT22;16578;53.266;7.920;2022-07-23T00:12:52;20.20;65.00
29663;DHT22;16578;53.266;7.920;2022-07-23T00:15:17;20.20;65.00
29663;DHT22;16578;53.266;7.920;2022-07-23T00:17:43;20.20;65.10
29663;DHT22;16578;53.266;7.920;2022-07-23T00:20:09;20.20;65.10
29663;DHT22;16578;53.266;7.920;2022-07-23T00:22:34;20.20;65.30
29663;DHT22;16578;53.266;7.920;2022-07-23T00:25:00;20.10;65.30
29663;DHT22;16578;53.266;7.920;2022-07-23T00:27:25;20.10;65.30
29663;DHT22;16578;53.266;7.920;2022-07-23T00:29:51;20.20;65.30
29663;DHT22;16578;53.266;7.920;2022-07-23T00:32:16;20.10;65.20
29663;DHT22;16578;53.266;7.920;2022-07-23T00:34:42;20.20;65.30
29663;DHT22;16578;53.266;7.920;2022-07-23T00:37:07;20.10;65.20
29663;DHT22;16578;53.266;7.920;2022-07-23T00:39:33;20.10;65.30
29663;DHT22;16578;53.266;7.920;2022-07-23T00:41:58;20.10;65.30
29663;DHT22;16578;53.266;7.920;2022-07-23T00:44:25;20.10;66.20
29663;DHT22;16578;53.266;7.920;2022-07-23T00:46:53;20.10;65.30
29663;DHT22;16578;53.266;7.920;2022-07-23T00:49:19;20.10;65.40
29663;DHT22;16578;53.266;7.920;2022-07-23T00:51:45;20.10;65.40
29663;DHT22;16578;53.266;7.920;2022-07-23T00:54:11;20.10;66.30
29663;DHT22;16578;53.266;7.920;2022-07-23T00:56:36;20.10;65.50
29663;DHT22;16578;53.266;7.920;2022-07-23T00:59:02;20.10;65.60
29663;DHT22;16578;53.266;7.920;2022-07-23T01:01:28;20.10;65.50
29663;DHT22;16578;53.266;7.920;2022-07-23T01:03:53;20.10;65.60
29663;DHT22;16578;53.266;7.920;2022-07-23T01:06:19;20.00;65.60
29663;DHT22;16578;53.266;7.920;2022-07-23T01:08:44;20.10;65.70
29663;DHT22;16578;53.266;7.920;2022-07-23T01:11:10;20.10;65.70
29663;DHT22;16578;53.266;7.920;2022-07-23T01:13:40;20.10;65.70
29663;DHT22;16578;53.266;7.920;2022-07-23T01:16:06;20.10;65.70
29663;DHT22;16578;53.266;7.920;2022-07-23T01:18:31;20.00;65.60
29663;DHT22;16578;53.266;7.920;2022-07-23T01:20:57;20.00;65.60
29663;DHT22;16578;53.266;7.920;2022-07-23T01:23:22;20.10;65.70
29663;DHT22;16578;53.266;7.920;2022-07-23T01:25:54;20.00;65.70
29663;DHT22;16578;53.266;7.920;2022-07-23T01:28:20;20.00;65.80
29663;DHT22;16578;53.266;7.920;2022-07-23T01:30:46;20.00;65.80
29663;DHT22;16578;53.266;7.920;2022-07-23T01:33:11;20.00;65.90
29663;DHT22;16578;53.266;7.920;2022-07-23T01:35:37;20.00;66.00
29663;DHT22;16578;53.266;7.920;2022-07-23T01:38:02;20.00;66.00
29663;DHT22;16578;53.266;7.920;2022-07-23T01:40:28;20.00;66.00
29663;DHT22;16578;53.266;7.920;2022-07-23T01:42:53;20.00;66.00
29663;DHT22;16578;53.266;7.920;2022-07-23T01:45:19;20.00;66.00
29663;DHT22;16578;53.266;7.920;2022-07-23T01:47:44;20.00;66.00
29663;DHT22;16578;53.266;7.920;2022-07-23T01:50:10;20.00;66.00
29663;DHT22;16578;53.266;7.920;2022-07-23T01:52:35;20.00;66.10
29663;DHT22;16578;53.266;7.920;2022-07-23T01:55:01;20.00;66.20
29663;DHT22;16578;53.266;7.920;2022-07-23T01:57:26;20.00;66.20
29663;DHT22;16578;53.266;7.920;2022-07-23T01:59:52;20.00;66.20
29663;DHT22;16578;53.266;7.920;2022-07-23T02:02:17;20.00;66.20
29663;DHT22;16578;53.266;7.920;2022-07-23T02:04:42;20.00;66.20
29663;DHT22;16578;53.266;7.920;2022-07-23T02:07:08;20.00;66.20
29663;DHT22;16578;53.266;7.920;2022-07-23T02:09:33;20.00;66.20
29663;DHT22;16578;53.266;7.920;2022-07-23T02:12:00;20.00;66.20
29663;DHT22;16578;53.266;7.920;2022-07-23T02:14:25;20.00;66.20
29663;DHT22;16578;53.266;7.920;2022-07-23T02:16:51;20.00;66.40
29663;DHT22;16578;53.266;7.920;2022-07-23T02:19:16;20.00;66.30
29663;DHT22;16578;53.266;7.920;2022-07-23T02:21:42;20.00;66.30
29663;DHT22;16578;53.266;7.920;2022-07-23T02:24:07;20.00;66.30
29663;DHT22;16578;53.266;7.920;2022-07-23T02:26:33;20.00;66.40
29663;DHT22;16578;53.266;7.920;2022-07-23T02:29:00;20.00;66.40
29663;DHT22;16578;53.266;7.920;2022-07-23T02:31:26;20.00;66.40
29663;DHT22;16578;53.266;7.920;2022-07-23T02:33:52;20.00;66.50
29663;DHT22;16578;53.266;7.920;2022-07-23T02:36:17;20.00;66.60
29663;DHT22;16578;53.266;7.920;2022-07-23T02:38:43;20.00;66.60
29663;DHT22;16578;53.266;7.920;2022-07-23T02:41:08;20.00;66.60
29663;DHT22;16578;53.266;7.920;2022-07-23T02:43:33;20.00;66.60
29663;DHT22;16578;53.266;7.920;2022-07-23T02:45:59;20.00;66.70
29663;DHT22;16578;53.266;7.920;2022-07-23T02:48:26;20.00;66.70
29663;DHT22;16578;53.266;7.920;2022-07-23T02:50:51;20.00;66.70
29663;DHT22;16578;53.266;7.920;2022-07-23T02:53:17;20.00;66.70
29663;DHT22;16578;53.266;7.920;2022-07-23T02:55:43;20.00;66.60
29663;DHT22;16578;53.266;7.920;2022-07-23T02:58:08;20.00;66.60
29663;DHT22;16578;53.266;7.920;2022-07-23T03:00:34;19.90;66.40
29663;DHT22;16578;53.266;7.920;2022-07-23T03:02:59;19.90;66.40
29663;DHT22;16578;53.266;7.920;2022-07-23T03:05:25;19.90;66.50
29663;DHT22;16578;53.266;7.920;2022-07-23T03:07:50;19.90;66.40
29663;DHT22;16578;53.266;7.920;2022-07-23T03:10:16;19.90;67.30
29663;DHT22;16578;53.266;7.920;2022-07-23T03:12:41;19.80;66.30
29663;DHT22;16578;53.266;7.920;2022-07-23T03:15:07;19.80;66.40
29663;DHT22;16578;53.266;7.920;2022-07-23T03:17:33;19.80;66.40
29663;DHT22;16578;53.266;7.920;2022-07-23T03:19:58;19.70;66.30
29663;DHT22;16578;53.266;7.920;2022-07-23T03:22:24;19.70;67.30
29663;DHT22;16578;53.266;7.920;2022-07-23T03:24:49;19.70;66.50
29663;DHT22;16578;53.266;7.920;2022-07-23T03:27:25;19.70;66.50
29663;DHT22;16578;53.266;7.920;2022-07-23T03:29:51;19.70;66.60
29663;DHT22;16578;53.266;7.920;2022-07-23T03:32:17;19.70;66.70
29663;DHT22;16578;53.266;7.920;2022-07-23T03:34:42;19.70;66.70
29663;DHT22;16578;53.266;7.920;2022-07-23T03:37:08;19.70;66.80
29663;DHT22;16578;53.266;7.920;2022-07-23T03:39:33;19.60;66.80
29663;DHT22;16578;53.266;7.920;2022-07-23T03:41:59;19.70;66.80
29663;DHT22;16578;53.266;7.920;2022-07-23T03:44:24;19.60;66.80
29663;DHT22;16578;53.266;7.920;2022-07-23T03:46:50;19.60;66.70
29663;DHT22;16578;53.266;7.920;2022-07-23T03:49:15;19.70;66.80
29663;DHT22;16578;53.266;7.920;2022-07-23T03:51:41;19.60;66.70
29663;DHT22;16578;53.266;7.920;2022-07-23T03:54:06;19.60;66.80
29663;DHT22;16578;53.266;7.920;2022-07-23T03:56:32;19.60;66.80
29663;DHT22;16578;53.266;7.920;2022-07-23T03:58:57;19.70;66.90
29663;DHT22;16578;53.266;7.920;2022-07-23T04:01:23;19.60;66.90
29663;DHT22;16578;53.266;7.920;2022-07-23T04:03:48;19.60;66.90
29663;DHT22;16578;53.266;7.920;2022-07-23T04:06:14;19.60;66.90
29663;DHT22;16578;53.266;7.920;2022-07-23T04:08:39;19.60;66.80
29663;DHT22;16578;53.266;7.920;2022-07-23T04:11:05;19.60;66.90
29663;DHT22;16578;53.266;7.920;2022-07-23T04:13:30;19.60;66.90
29663;DHT22;16578;53.266;7.920;2022-07-23T04:15:57;19.60;67.00
29663;DHT22;16578;53.266;7.920;2022-07-23T04:18:23;19.60;67.00
29663;DHT22;16578;53.266;7.920;2022-07-23T04:20:50;19.60;67.00
29663;DHT22;16578;53.266;7.920;2022-07-23T04:23:15;19.60;67.00
29663;DHT22;16578;53.266;7.920;2022-07-23T04:25:41;19.60;67.00
29663;DHT22;16578;53.266;7.920;2022-07-23T04:28:06;19.60;67.00
29663;DHT22;16578;53.266;7.920;2022-07-23T04:30:31;19.50;66.90
29663;DHT22;16578;53.266;7.920;2022-07-23T04:32:57;19.50;66.90
29663;DHT22;16578;53.266;7.920;2022-07-23T04:35:22;19.50;66.90
29663;DHT22;16578;53.266;7.920;2022-07-23T04:37:48;19.50;66.90
29663;DHT22;16578;53.266;7.920;2022-07-23T04:40:13;19.50;66.90
29663;DHT22;16578;53.266;7.920;2022-07-23T04:42:39;19.50;66.90
29663;DHT22;16578;53.266;7.920;2022-07-23T04:45:05;19.40;67.00
29663;DHT22;16578;53.266;7.920;2022-07-23T04:47:30;19.40;66.90
29663;DHT22;16578;53.266;7.920;2022-07-23T04:49:56;19.40;67.00
29663;DHT22;16578;53.266;7.920;2022-07-23T04:52:21;19.40;67.00
29663;DHT22;16578;53.266;7.920;2022-07-23T04:54:47;19.40;67.10
29663;DHT22;16578;53.266;7.920;2022-07-23T04:57:12;19.40;67.20
29663;DHT22;16578;53.266;7.920;2022-07-23T04:59:38;19.40;67.20
29663;DHT22;16578;53.266;7.920;2022-07-23T05:02:03;19.40;67.20
29663;DHT22;16578;53.266;7.920;2022-07-23T05:04:29;19.40;67.30
29663;DHT22;16578;53.266;7.920;2022-07-23T05:06:56;19.40;67.40
29663;DHT22;16578;53.266;7.920;2022-07-23T05:09:22;19.40;67.50
29663;DHT22;16578;53.266;7.920;2022-07-23T05:11:47;19.40;67.50
29663;DHT22;16578;53.266;7.920;2022-07-23T05:14:13;19.40;67.50
29663;DHT22;16578;53.266;7.920;2022-07-23T05:16:38;19.40;67.60
29663;DHT22;16578;53.266;7.920;2022-07-23T05:19:04;19.40;67.60
29663;DHT22;16578;53.266;7.920;2022-07-23T05:21:29;19.40;67.60
29663;DHT22;16578;53.266;7.920;2022-07-23T05:23:55;19.40;67.60
29663;DHT22;16578;53.266;7.920;2022-07-23T05:26:20;19.40;67.70
29663;DHT22;16578;53.266;7.920;2022-07-23T05:28:46;19.40;67.70
29663;DHT22;16578;53.266;7.920;2022-07-23T05:31:11;19.50;67.80
29663;DHT22;16578;53.266;7.920;2022-07-23T05:33:37;19.50;67.80
29663;DHT22;16578;53.266;7.920;2022-07-23T05:36:02;19.50;67.90
29663;DHT22;16578;53.266;7.920;2022-07-23T05:38:28;19.50;67.90
29663;DHT22;16578;53.266;7.920;2022-07-23T05:40:54;19.50;67.90
29663;DHT22;16578;53.266;7.920;2022-07-23T05:43:19;19.60;68.00
29663;DHT22;16578;53.266;7.920;2022-07-23T05:45:45;19.60;68.00
29663;DHT22;16578;53.266;7.920;2022-07-23T05:48:10;19.60;68.00
29663;DHT22;16578;53.266;7.920;2022-07-23T05:50:36;19.60;68.00
29663;DHT22;16578;53.266;7.920;2022-07-23T05:53:01;19.60;68.00
29663;DHT22;16578;53.266;7.920;2022-07-23T05:55:26;19.60;68.10
29663;DHT22;16578;53.266;7.920;2022-07-23T05:57:55;19.70;68.10
29663;DHT22;16578;53.266;7.920;2022-07-23T06:00:20;19.70;68.10
29663;DHT22;16578;53.266;7.920;2022-07-23T06:02:46;19.70;68.10
29663;DHT22;16578;53.266;7.920;2022-07-23T06:05:11;19.70;68.10
29663;DHT22;16578;53.266;7.920;2022-07-23T06:07:37;19.70;68.10
29663;DHT22;16578;53.266;7.920;2022-07-23T06:10:03;19.80;69.10
29663;DHT22;16578;53.266;7.920;2022-07-23T06:12:29;19.80;68.20
29663;DHT22;16578;53.266;7.920;2022-07-23T06:14:54;19.80;68.20
29663;DHT22;16578;53.266;7.920;2022-07-23T06:17:20;19.80;68.20
29663;DHT22;16578;53.266;7.920;2022-07-23T06:19:45;19.80;68.10
29663;DHT22;16578;53.266;7.920;2022-07-23T06:22:11;19.80;68.10
29663;DHT22;16578;53.266;7.920;2022-07-23T06:24:36;19.90;68.10
29663;DHT22;16578;53.266;7.920;2022-07-23T06:27:02;19.90;68.10
29663;DHT22;16578;53.266;7.920;2022-07-23T06:29:27;19.90;68.20
29663;DHT22;16578;53.266;7.920;2022-07-23T06:31:53;19.90;68.20
29663;DHT22;16578;53.266;7.920;2022-07-23T06:34:18;19.90;68.30
29663;DHT22;16578;53.266;7.920;2022-07-23T06:36:44;19.90;68.20
29663;DHT22;16578;53.266;7.920;2022-07-23T06:39:09;19.90;68.30
29663;DHT22;16578;53.266;7.920;2022-07-23T06:41:35;19.90;68.30
29663;DHT22;16578;53.266;7.920;2022-07-23T06:44:00;19.90;68.30
29663;DHT22;16578;53.266;7.920;2022-07-23T06:46:26;19.90;68.30
29663;DHT22;16578;53.266;7.920;2022-07-23T06:48:51;19.90;68.30
29663;DHT22;16578;53.266;7.920;2022-07-23T06:51:16;19.90;68.30
29663;DHT22;16578;53.266;7.920;2022-07-23T06:53:42;20.00;68.40
29663;DHT22;16578;53.266;7.920;2022-07-23T06:56:07;20.00;68.30
29663;DHT22;16578;53.266;7.920;2022-07-23T06:58:33;20.00;68.30
29663;DHT22;16578;53.266;7.920;2022-07-23T07:00:59;20.00;68.40
29663;DHT22;16578;53.266;7.920;2022-07-23T07:03:24;20.00;68.40
29663;DHT22;16578;53.266;7.920;2022-07-23T07:05:50;20.00;68.30
29663;DHT22;16578;53.266;7.920;2022-07-23T07:08:15;20.00;68.30
29663;DHT22;16578;53.266;7.920;2022-07-23T07:10:41;20.10;68.30
29663;DHT22;16578;53.266;7.920;2022-07-23T07:13:06;20.10;68.30
29663;DHT22;16578;53.266;7.920;2022-07-23T07:15:32;20.10;69.30
29663;DHT22;16578;53.266;7.920;2022-07-23T07:17:57;20.10;68.30
29663;DHT22;16578;53.266;7.920;2022-07-23T07:20:23;20.10;68.30
29663;DHT22;16578;53.266;7.920;2022-07-23T07:22:49;20.10;68.30
29663;DHT22;16578;53.266;7.920;2022-07-23T07:25:14;20.20;68.50
29663;DHT22;16578;53.266;7.920;2022-07-23T07:27:40;20.20;68.50
29663;DHT22;16578;53.266;7.920;2022-07-23T07:30:05;20.20;68.50
29663;DHT22;16578;53.266;7.920;2022-07-23T07:32:31;20.20;68.40
29663;DHT22;16578;53.266;7.920;2022-07-23T07:34:57;20.30;68.50
29663;DHT22;16578;53.266;7.920;2022-07-23T07:37:23;20.30;68.50
29663;DHT22;16578;53.266;7.920;2022-07-23T07:39:48;20.30;68.50
29663;DHT22;16578;53.266;7.920;2022-07-23T07:42:14;20.30;68.50
29663;DHT22;16578;53.266;7.920;2022-07-23T07:44:39;20.40;68.60
29663;DHT22;16578;53.266;7.920;2022-07-23T07:47:05;20.40;68.50
29663;DHT22;16578;53.266;7.920;2022-07-23T07:49:30;20.40;68.50
29663;DHT22;16578;53.266;7.920;2022-07-23T07:51:56;20.50;68.60
29663;DHT22;16578;53.266;7.920;2022-07-23T07:54:21;20.50;68.50
29663;DHT22;16578;53.266;7.920;2022-07-23T07:56:47;20.50;68.50
29663;DHT22;16578;53.266;7.920;2022-07-23T07:59:13;20.60;68.50
29663;DHT22;16578;53.266;7.920;2022-07-23T08:01:40;20.50;68.40
29663;DHT22;16578;53.266;7.920;2022-07-23T08:04:05;20.60;68.30
29663;DHT22;16578;53.266;7.920;2022-07-23T08:06:31;20.60;68.30
29663;DHT22;16578;53.266;7.920;2022-07-23T08:08:56;20.60;68.30
29663;DHT22;16578;53.266;7.920;2022-07-23T08:11:22;20.60;68.30
29663;DHT22;16578;53.266;7.920;2022-07-23T08:13:47;20.70;68.30
29663;DHT22;16578;53.266;7.920;2022-07-23T08:16:13;20.70;68.20
29663;DHT22;16578;53.266;7.920;2022-07-23T08:18:38;20.70;68.20
29663;DHT22;16578;53.266;7.920;2022-07-23T08:21:04;20.70;68.20
29663;DHT22;16578;53.266;7.920;2022-07-23T08:23:31;20.80;68.10
29663;DHT22;16578;53.266;7.920;2022-07-23T08:25:56;20.80;68.10
29663;DHT22;16578;53.266;7.920;2022-07-23T08:28:22;20.80;67.90
29663;DHT22;16578;53.266;7.920;2022-07-23T08:30:48;20.80;67.80
29663;DHT22;16578;53.266;7.920;2022-07-23T08:33:15;20.90;67.70
29663;DHT22;16578;53.266;7.920;2022-07-23T08:35:45;20.80;67.70
29663;DHT22;16578;53.266;7.920;2022-07-23T08:38:12;20.90;67.60
29663;DHT22;16578;53.266;7.920;2022-07-23T08:40:42;20.90;67.40
29663;DHT22;16578;53.266;7.920;2022-07-23T08:43:13;20.90;67.30
29663;DHT22;16578;53.266;7.920;2022-07-23T08:45:40;20.90;67.10
29663;DHT22;16578;53.266;7.920;2022-07-23T08:48:13;20.90;67.10
29663;DHT22;16578;53.266;7.920;2022-07-23T08:50:43;20.90;67.10
29663;DHT22;16578;53.266;7.920;2022-07-23T08:53:08;20.90;66.90
29663;DHT22;16578;53.266;7.920;2022-07-23T08:55:34;20.90;66.90
29663;DHT22;16578;53.266;7.920;2022-07-23T08:58:00;20.80;66.70
29663;DHT22;16578;53.266;7.920;2022-07-23T09:00:26;20.80;66.70
29663;DHT22;16578;53.266;7.920;2022-07-23T09:02:51;20.80;66.70
29663;DHT22;16578;53.266;7.920;2022-07-23T09:05:17;20.80;66.70
29663;DHT22;16578;53.266;7.920;2022-07-23T09:10:27;20.80;66.80
29663;DHT22;16578;53.266;7.920;2022-07-23T09:12:53;20.90;67.00
29663;DHT22;16578;53.266;7.920;2022-07-23T09:15:18;20.90;66.80
29663;DHT22;16578;53.266;7.920;2022-07-23T09:17:44;20.90;66.80
29663;DHT22;16578;53.266;7.920;2022-07-23T09:20:14;20.90;66.80
29663;DHT22;16578;53.266;7.920;2022-07-23T09:22:47;20.90;66.60
29663;DHT22;16578;53.266;7.920;2022-07-23T09:25:14;20.90;67.30
29663;DHT22;16578;53.266;7.920;2022-07-23T09:27:56;20.90;66.10
29663;DHT22;16578;53.266;7.920;2022-07-23T09:30:23;21.00;66.00
29663;DHT22;16578;53.266;7.920;2022-07-23T09:33:07;21.00;65.70
29663;DHT22;16578;53.266;7.920;2022-07-23T09:35:46;21.00;65.70
29663;DHT22;16578;53.266;7.920;2022-07-23T09:38:12;21.00;65.70
29663;DHT22;16578;53.266;7.920;2022-07-23T09:40:38;21.00;65.60
29663;DHT22;16578;53.266;7.920;2022-07-23T09:43:03;21.00;65.50
29663;DHT22;16578;53.266;7.920;2022-07-23T09:45:29;21.10;65.40
29663;DHT22;16578;53.266;7.920;2022-07-23T09:48:10;21.10;65.30
29663;DHT22;16578;53.266;7.920;2022-07-23T09:50:36;21.20;65.30
29663;DHT22;16578;53.266;7.920;2022-07-23T09:53:02;21.20;65.20
29663;DHT22;16578;53.266;7.920;2022-07-23T09:55:31;21.20;65.20
29663;DHT22;16578;53.266;7.920;2022-07-23T09:58:02;21.30;65.30
29663;DHT22;16578;53.266;7.920;2022-07-23T10:00:27;21.30;65.20
29663;DHT22;16578;53.266;7.920;2022-07-23T10:02:53;21.40;65.10
29663;DHT22;16578;53.266;7.920;2022-07-23T10:05:20;21.40;64.80
29663;DHT22;16578;53.266;7.920;2022-07-23T10:07:46;21.40;64.70
29663;DHT22;16578;53.266;7.920;2022-07-23T10:10:11;21.50;64.70
29663;DHT22;16578;53.266;7.920;2022-07-23T10:12:38;21.50;64.40
29663;DHT22;16578;53.266;7.920;2022-07-23T10:15:12;21.50;64.10
29663;DHT22;16578;53.266;7.920;2022-07-23T10:17:38;21.50;64.00
29663;DHT22;16578;53.266;7.920;2022-07-23T10:20:04;21.50;63.90
29663;DHT22;16578;53.266;7.920;2022-07-23T10:22:31;21.50;63.90
29663;DHT22;16578;53.266;7.920;2022-07-23T10:25:08;21.60;63.90
29663;DHT22;16578;53.266;7.920;2022-07-23T10:30:38;21.60;63.70
29663;DHT22;16578;53.266;7.920;2022-07-23T10:35:37;21.70;63.40
29663;DHT22;16578;53.266;7.920;2022-07-23T10:38:13;21.70;63.30
29663;DHT22;16578;53.266;7.920;2022-07-23T10:40:52;21.80;63.20
29663;DHT22;16578;53.266;7.920;2022-07-23T10:43:18;21.80;63.00
29663;DHT22;16578;53.266;7.920;2022-07-23T10:45:44;21.80;62.50
29663;DHT22;16578;53.266;7.920;2022-07-23T10:48:17;21.80;62.20
29663;DHT22;16578;53.266;7.920;2022-07-23T10:50:44;21.80;62.00
29663;DHT22;16578;53.266;7.920;2022-07-23T10:53:29;21.80;62.00
29663;DHT22;16578;53.266;7.920;2022-07-23T10:56:14;21.80;61.90
29663;DHT22;16578;53.266;7.920;2022-07-23T10:58:47;21.80;61.90
29663;DHT22;16578;53.266;7.920;2022-07-23T11:01:32;21.90;62.00
29663;DHT22;16578;53.266;7.920;2022-07-23T11:03:58;21.90;61.80
29663;DHT22;16578;53.266;7.920;2022-07-23T11:06:40;21.90;62.60
29663;DHT22;16578;53.266;7.920;2022-07-23T11:17:19;22.20;61.40
29663;DHT22;16578;53.266;7.920;2022-07-23T11:22:35;22.30;61.10
29663;DHT22;16578;53.266;7.920;2022-07-23T11:25:01;22.40;61.10
29663;DHT22;16578;53.266;7.920;2022-07-23T11:27:39;22.40;60.90
29663;DHT22;16578;53.266;7.920;2022-07-23T11:30:05;22.40;60.70
29663;DHT22;16578;53.266;7.920;2022-07-23T11:32:32;22.50;60.60
29663;DHT22;16578;53.266;7.920;2022-07-23T11:34:59;22.50;60.50
29663;DHT22;16578;53.266;7.920;2022-07-23T11:37:29;22.50;60.30
29663;DHT22;16578;53.266;7.920;2022-07-23T11:39:57;22.60;60.30
29663;DHT22;16578;53.266;7.920;2022-07-23T11:42:22;22.60;60.30
29663;DHT22;16578;53.266;7.920;2022-07-23T11:44:49;22.60;60.10
29663;DHT22;16578;53.266;7.920;2022-07-23T11:47:14;22.60;60.10
29663;DHT22;16578;53.266;7.920;2022-07-23T11:49:51;22.70;60.00
29663;DHT22;16578;53.266;7.920;2022-07-23T11:52:17;22.70;60.00
29663;DHT22;16578;53.266;7.920;2022-07-23T11:54:49;22.70;59.80
29663;DHT22;16578;53.266;7.920;2022-07-23T11:57:15;22.80;59.70
29663;DHT22;16578;53.266;7.920;2022-07-23T11:59:41;22.80;59.70
29663;DHT22;16578;53.266;7.920;2022-07-23T12:02:07;22.80;59.70
29663;DHT22;16578;53.266;7.920;2022-07-23T12:04:42;22.90;59.80
29663;DHT22;16578;53.266;7.920;2022-07-23T12:09:49;23.00;59.90
29663;DHT22;16578;53.266;7.920;2022-07-23T12:12:14;23.00;59.80
29663;DHT22;16578;53.266;7.920;2022-07-23T12:17:17;23.00;59.40
29663;DHT22;16578;53.266;7.920;2022-07-23T12:19:43;23.10;59.40
29663;DHT22;16578;53.266;7.920;2022-07-23T12:22:09;23.00;59.20
29663;DHT22;16578;53.266;7.920;2022-07-23T12:27:20;23.10;59.00
29663;DHT22;16578;53.266;7.920;2022-07-23T12:29:46;23.00;59.00
29663;DHT22;16578;53.266;7.920;2022-07-23T12:32:18;23.00;59.10
29663;DHT22;16578;53.266;7.920;2022-07-23T12:34:44;23.00;59.10
29663;DHT22;16578;53.266;7.920;2022-07-23T12:37:25;23.00;58.90
29663;DHT22;16578;53.266;7.920;2022-07-23T12:39:50;23.00;58.80
29663;DHT22;16578;53.266;7.920;2022-07-23T12:42:16;23.00;58.70
29663;DHT22;16578;53.266;7.920;2022-07-23T12:44:41;23.00;58.50
29663;DHT22;16578;53.266;7.920;2022-07-23T12:47:27;23.00;58.50
29663;DHT22;16578;53.266;7.920;2022-07-23T12:49:52;23.00;58.50
29663;DHT22;16578;53.266;7.920;2022-07-23T12:52:18;23.00;58.50
29663;DHT22;16578;53.266;7.920;2022-07-23T12:54:44;23.00;59.20
29663;DHT22;16578;53.266;7.920;2022-07-23T12:57:09;23.00;58.50
29663;DHT22;16578;53.266;7.920;2022-07-23T12:59:34;23.00;58.40
29663;DHT22;16578;53.266;7.920;2022-07-23T13:02:00;23.00;58.30
29663;DHT22;16578;53.266;7.920;2022-07-23T13:04:26;23.00;58.20
29663;DHT22;16578;53.266;7.920;2022-07-23T13:06:52;23.00;58.20
29663;DHT22;16578;53.266;7.920;2022-07-23T13:09:19;23.00;58.30
29663;DHT22;16578;53.266;7.920;2022-07-23T13:11:46;23.10;58.20
29663;DHT22;16578;53.266;7.920;2022-07-23T13:14:11;23.10;58.30
29663;DHT22;16578;53.266;7.920;2022-07-23T13:16:38;23.10;58.30
29663;DHT22;16578;53.266;7.920;2022-07-23T13:19:04;23.10;58.20
29663;DHT22;16578;53.266;7.920;2022-07-23T13:21:29;23.10;58.30
29663;DHT22;16578;53.266;7.920;2022-07-23T13:23:55;23.10;58.30
29663;DHT22;16578;53.266;7.920;2022-07-23T13:26:21;23.20;58.10
29663;DHT22;16578;53.266;7.920;2022-07-23T13:28:46;23.20;58.10
29663;DHT22;16578;53.266;7.920;2022-07-23T13:31:12;23.20;58.00
29663;DHT22;16578;53.266;7.920;2022-07-23T13:33:38;23.20;57.90
29663;DHT22;16578;53.266;7.920;2022-07-23T13:36:03;23.20;57.80
29663;DHT22;16578;53.266;7.920;2022-07-23T13:38:29;23.30;57.80
29663;DHT22;16578;53.266;7.920;2022-07-23T13:40:54;23.30;57.80
29663;DHT22;16578;53.266;7.920;2022-07-23T13:43:21;23.30;57.70
29663;DHT22;16578;53.266;7.920;2022-07-23T13:45:47;23.40;57.70
29663;DHT22;16578;53.266;7.920;2022-07-23T13:48:12;23.40;57.70
29663;DHT22;16578;53.266;7.920;2022-07-23T13:50:38;23.40;57.70
29663;DHT22;16578;53.266;7.920;2022-07-23T13:53:04;23.40;57.60
29663;DHT22;16578;53.266;7.920;2022-07-23T13:55:30;23.50;57.50
29663;DHT22;16578;53.266;7.920;2022-07-23T13:57:56;23.50;57.50
29663;DHT22;16578;53.266;7.920;2022-07-23T14:00:21;23.50;57.40
29663;DHT22;16578;53.266;7.920;2022-07-23T14:02:47;23.50;57.30
29663;DHT22;16578;53.266;7.920;2022-07-23T14:05:12;23.60;57.20
29663;DHT22;16578;53.266;7.920;2022-07-23T14:07:38;23.50;57.10
29663;DHT22;16578;53.266;7.920;2022-07-23T14:10:04;23.50;56.90
29663;DHT22;16578;53.266;7.920;2022-07-23T14:12:30;23.50;57.00
29663;DHT22;16578;53.266;7.920;2022-07-23T14:14:56;23.50;57.00
29663;DHT22;16578;53.266;7.920;2022-07-23T14:17:21;23.50;57.00
29663;DHT22;16578;53.266;7.920;2022-07-23T14:19:47;23.50;57.00
29663;DHT22;16578;53.266;7.920;2022-07-23T14:22:13;23.60;57.80
29663;DHT22;16578;53.266;7.920;2022-07-23T14:24:38;23.50;57.00
29663;DHT22;16578;53.266;7.920;2022-07-23T14:27:04;23.60;57.00
29663;DHT22;16578;53.266;7.920;2022-07-23T14:29:30;23.60;56.90
29663;DHT22;16578;53.266;7.920;2022-07-23T14:31:56;23.60;56.80
29663;DHT22;16578;53.266;7.920;2022-07-23T14:34:22;23.60;56.90
29663;DHT22;16578;53.266;7.920;2022-07-23T14:36:47;23.60;57.00
29663;DHT22;16578;53.266;7.920;2022-07-23T14:39:12;23.60;57.10
29663;DHT22;16578;53.266;7.920;2022-07-23T14:41:38;23.60;57.00
29663;DHT22;16578;53.266;7.920;2022-07-23T14:44:04;23.70;56.90
29663;DHT22;16578;53.266;7.920;2022-07-23T14:46:30;23.70;57.00
29663;DHT22;16578;53.266;7.920;2022-07-23T14:48:55;23.80;57.10
29663;DHT22;16578;53.266;7.920;2022-07-23T14:51:21;23.80;57.20
29663;DHT22;16578;53.266;7.920;2022-07-23T14:53:46;23.80;57.20
29663;DHT22;16578;53.266;7.920;2022-07-23T14:56:12;23.80;57.10
29663;DHT22;16578;53.266;7.920;2022-07-23T14:58:38;23.80;57.00
29663;DHT22;16578;53.266;7.920;2022-07-23T15:01:04;23.80;56.90
29663;DHT22;16578;53.266;7.920;2022-07-23T15:03:30;23.90;56.70
29663;DHT22;16578;53.266;7.920;2022-07-23T15:05:55;23.90;56.60
29663;DHT22;16578;53.266;7.920;2022-07-23T15:08:22;23.90;56.50
29663;DHT22;16578;53.266;7.920;2022-07-23T15:10:47;23.90;56.60
29663;DHT22;16578;53.266;7.920;2022-07-23T15:13:13;23.90;56.50
29663;DHT22;16578;53.266;7.920;2022-07-23T15:15:38;23.90;56.40
29663;DHT22;16578;53.266;7.920;2022-07-23T15:18:04;23.90;56.40
29663;DHT22;16578;53.266;7.920;2022-07-23T15:20:29;23.80;56.20
29663;DHT22;16578;53.266;7.920;2022-07-23T15:22:56;23.80;56.20
29663;DHT22;16578;53.266;7.920;2022-07-23T15:25:23;23.90;56.20
29663;DHT22;16578;53.266;7.920;2022-07-23T15:27:48;23.80;56.20
29663;DHT22;16578;53.266;7.920;2022-07-23T15:30:14;23.90;56.20
29663;DHT22;16578;53.266;7.920;2022-07-23T15:32:39;23.80;56.20
29663;DHT22;16578;53.266;7.920;2022-07-23T15:35:05;23.80;56.20
29663;DHT22;16578;53.266;7.920;2022-07-23T15:37:33;23.90;56.30
29663;DHT22;16578;53.266;7.920;2022-07-23T15:39:59;23.90;56.30
29663;DHT22;16578;53.266;7.920;2022-07-23T15:42:24;23.90;56.40
29663;DHT22;16578;53.266;7.920;2022-07-23T15:44:50;23.90;56.10
29663;DHT22;16578;53.266;7.920;2022-07-23T15:47:16;23.90;56.00
29663;DHT22;16578;53.266;7.920;2022-07-23T15:49:41;23.90;55.90
29663;DHT22;16578;53.266;7.920;2022-07-23T15:52:07;23.90;55.80